Flight Track Log - Related Links

Times and Time Zones

All times are in EDT time to prevent confusion due to time zone crossing. See the N45NF flight status page for this flight to view local times or setup timezone preferences in your user account.

Time Position Orientation Groundspeed Altitude Reporting Facility
EDT Latitude Longitude Course Direction KTS MPH feet Rate Location/Type
Sat 12:42:31 PM 41.9211 -93.6564 201° Southwest 218 251 5,700  Level Minneapolis Center
Sat 12:43:41 PM 41.8386 -93.7000 201° Southwest 257 296 10,000 3,500 Climbing Minneapolis Center
Sat 12:44:43 PM 41.7711 -93.7325 200° South 269 310 13,400 3,048 Climbing Minneapolis Center
Sat 12:45:45 PM 41.6964 -93.7694 200° South 285 328 16,300 2,710 Climbing Minneapolis Center
Sat 12:46:47 PM 41.5994 -93.8178 200° South 305 351 19,000 2,516 Climbing Minneapolis Center
Sat 12:47:49 PM 41.5144 -93.8589 200° South 321 369 21,500 2,323 Climbing Minneapolis Center
Sat 12:48:51 PM 41.4286 -93.9019 201° Southwest 329 379 23,800 2,000 Climbing Minneapolis Center
Sat 12:49:52 PM 41.3425 -93.9439 200° South 332 382 25,600 1,659 Climbing Minneapolis Center
Sat 12:50:54 PM 41.2522 -93.9881 200° South 338 389 27,200 1,694 Climbing Minneapolis Center
Sat 12:51:56 PM 41.1369 -94.0453 201° Southwest 353 406 29,100 1,694 Climbing Minneapolis Center
Sat 12:52:58 PM 41.0411 -94.0919 200° South 363 418 30,700 1,694 Climbing Minneapolis Center
Sat 12:54:00 PM 40.9453 -94.1386 200° South 369 425 32,600 1,887 Climbing Minneapolis Center
Sat 12:55:02 PM 40.8503 -94.1850 200° South 368 423 34,600 1,839 Climbing Minneapolis Center
Sat 12:56:04 PM 40.7558 -94.2306 200° South 366 421 36,400 1,984 Climbing Minneapolis Center
Sat 12:57:06 PM 40.6419 -94.2856 200° South 367 422 38,700 1,742 Climbing Minneapolis Center
Sat 12:58:08 PM 40.5500 -94.3294 200° South 362 417 40,000 629 Climbing Minneapolis Center
Sat 12:59:10 PM 40.4522 -94.3764 200° South 367 422 40,000  Level Minneapolis Center
Sat 01:00:12 PM 40.3453 -94.4267 200° South 393 452 40,000  Level Minneapolis Center
Sat 01:01:14 PM 40.2375 -94.4792 200° South 409 471 40,000  Level Minneapolis Center
Sat 01:02:14 PM 40.1297 -94.5272 199° South 409 471 40,000  Level Kansas City Center
Sat 01:03:15 PM 40.0111 -94.5842 200° South 404 465 40,000  Level Kansas City Center
Sat 01:04:15 PM 39.9083 -94.6314 199° South 406 467 40,000  Level Kansas City Center
Sat 01:05:19 PM 39.7908 -94.6889 201° Southwest 402 463 40,000  Level Kansas City Center
Sat 01:06:20 PM 39.6864 -94.7356 199° South 409 471 40,000  Level Kansas City Center
Sat 01:07:24 PM 39.5661 -94.7928 200° South 412 474 40,000  Level Kansas City Center
Sat 01:08:24 PM 39.4631 -94.8408 200° South 411 473 40,000  Level Kansas City Center
Sat 01:09:28 PM 39.3583 -94.8900 200° South 414 476 40,000  Level Kansas City Center
Sat 01:10:28 PM 39.2372 -94.9442 199° South 409 471 40,000  Level Kansas City Center
Sat 01:11:30 PM 39.1331 -94.9922 200° South 409 471 40,000  Level Kansas City Center
Sat 01:12:34 PM 39.0106 -95.0481 200° South 412 474 40,000  Level Kansas City Center
Sat 01:13:34 PM 38.9056 -95.0958 200° South 415 478 40,000  Level Kansas City Center
Sat 01:14:38 PM 38.7825 -95.1525 200° South 420 483 40,000  Level Kansas City Center
Sat 01:15:39 PM 38.6761 -95.2011 200° South 422 486 40,000  Level Kansas City Center
Sat 01:16:43 PM 38.5708 -95.2492 200° South 419 482 40,000  Level Kansas City Center
Sat 01:17:44 PM 38.4500 -95.3031 199° South 413 475 40,000  Level Kansas City Center
Sat 01:18:44 PM 38.3472 -95.3494 199° South 410 472 40,000  Level Kansas City Center
Sat 01:19:47 PM 38.2258 -95.4031 199° South 410 472 40,000  Level Kansas City Center
Sat 01:20:48 PM 38.1203 -95.4503 199° South 417 480 40,000  Level Kansas City Center
Sat 01:21:53 PM 37.9978 -95.5044 199° South 418 481 40,000  Level Kansas City Center
Sat 01:22:54 PM 37.8958 -95.5497 199° South 417 480 40,000  Level Kansas City Center
Sat 01:23:54 PM 37.7867 -95.5972 199° South 415 478 40,000  Level Kansas City Center
Sat 01:24:58 PM 37.6542 -95.6558 199° South 418 481 40,000  Level Kansas City Center
Sat 01:25:59 PM 37.5439 -95.7039 199° South 419 482 40,000  Level Kansas City Center
Sat 01:27:03 PM 37.4322 -95.7525 199° South 423 487 40,000  Level Kansas City Center
Sat 01:28:03 PM 37.3214 -95.7989 198° South 421 484 40,000  Level Kansas City Center
Sat 01:29:06 PM 37.2108 -95.8472 199° South 421 484 40,000  Level Kansas City Center
Sat 01:30:07 PM 37.0989 -95.8964 199° South 424 488 40,000  Level Kansas City Center
Sat 01:31:10 PM 36.9650 -95.9539 199° South 424 488 40,000  Level Kansas City Center
Sat 01:32:11 PM 36.8531 -96.0025 199° South 426 490 40,000  Level Kansas City Center
Sat 01:33:14 PM 36.7425 -96.0514 200° South 424 488 40,000  Level Kansas City Center
Sat 01:34:14 PM 36.6300 -96.0986 199° South 426 490 40,000  Level Kansas City Center
Sat 01:35:16 PM 36.5203 -96.1444 199° South 421 484 40,000  Level Kansas City Center
Sat 01:36:20 PM 36.4136 -96.1908 199° South 413 475 40,000  Level Kansas City Center
Sat 01:37:21 PM 36.2825 -96.2467 199° South 415 478 40,000  Level Kansas City Center
Sat 01:38:24 PM 36.1706 -96.2936 199° South 422 486 40,000  Level Kansas City Center
Sat 01:39:25 PM 36.0589 -96.3406 199° South 425 489 40,000  Level Kansas City Center
Sat 01:40:27 PM 35.9500 -96.3847 198° South 417 480 40,000 -810 Level Kansas City Center
Sat 01:41:31 PM 35.8347 -96.4333 199° South 410 472 38,300 -1,857 Descending Kansas City Center
Sat 01:42:33 PM 35.7269 -96.4772 198° South 408 470 36,100 -1,869 Descending Kansas City Center
Sat 01:43:33 PM 35.6219 -96.5194 198° South 400 460 34,500 -1,846 Descending Kansas City Center
Sat 01:44:04 PM 35.5514 -96.5511 200° South 402 463 33,300 -2,110 Descending Fort Worth Center
Sat 01:45:04 PM 35.4472 -96.5931 198° South 402 463 31,300 -2,000 Descending Fort Worth Center
Sat 01:46:04 PM 35.3433 -96.6372 199° South 402 463 29,300 -1,950 Descending Fort Worth Center
Sat 01:47:04 PM 35.2394 -96.6789 198° South 402 463 27,400 -2,050 Descending Fort Worth Center
Sat 01:48:04 PM 35.1292 -96.7256 199° South 408 470 25,200 -2,300 Descending Fort Worth Center
Sat 01:49:04 PM 35.0228 -96.7669 198° South 408 470 22,800 -2,400 Descending Fort Worth Center
Sat 01:50:04 PM 34.9250 -96.8108 200° South 397 457 20,400 -2,250 Descending Fort Worth Center
Sat 01:51:04 PM 34.8333 -96.8469 198° South 373 429 18,300 -2,150 Descending Fort Worth Center
Sat 01:52:04 PM 34.7378 -96.8856 198° South 367 422 16,100 -2,300 Descending Fort Worth Center
Sat 01:53:04 PM 34.6461 -96.9239 199° South 362 417 13,700 -2,450 Descending Fort Worth Center
Sat 01:54:04 PM 34.5564 -96.9622 199° South 357 411 11,200 -2,500 Descending Fort Worth Center

Login

Don't have an account? Register now (free) for customized features, flight alerts, and more!